Sheridan, Montana
Current Conditions -  °F | °C
As of 6:53 AM on Saturday 25 Oct 2014 (Local Time) from KDLN Reporting Station
Clear Clear  
Wind Chill: 32°   Ceiling: Unl
Heat Index: 32°   Visibility: 10mi
Dew Point: 31°   Wind: 3mph
Humidity: 96%   Direction: 200°SSW
Pressure: 30.02"   Gusts: NA
Location:  45.46°N, 112.2°W
Report Text: KDLN 251253Z AUTO 20003KT 10SM CLR 00/M01 A3002 RMK AO2 SLP165 T00001006
Loading
Personal Weather Stations






























Interactive Weather Map
Tropical Storm Tracking
New forecast layout! Learn more

10-Day Weather Forecast

Advertisements
Track Severe Weather on mobile